Altus, Oklahoma
Current Conditions -  °F | °C
As of 2:58 PM on Tuesday 25 Nov 2014 (Local Time) from KLTS Reporting Station
Clear Clear  
Wind Chill: 56°   Ceiling: Unl
Heat Index: 56°   Visibility: 10mi
Dew Point: 25°   Wind: 9mph
Humidity: 30%   Direction: 230°SW
Pressure: 30.15"   Gusts: 18mph
Location:  34.64°N, 99.33°W
Report Text: KLTS 252058Z 23008G16KT 10SM CLR 13/M04 A3015 RMK AO2A SLP211 T01321041 57042 $
Loading
Personal Weather Stations






























Interactive Weather Map New forecast layout! Learn more

10-Day Weather Forecast

Advertisements
Track Severe Weather on mobile